createdAt,value
2018-03-25T00:00:42.607Z,72.68
2018-03-25T00:03:12.574Z,72.82
2018-03-25T00:05:41.795Z,72.72
2018-03-25T00:08:10.995Z,72.81
2018-03-25T00:10:40.353Z,72.60
2018-03-25T00:13:09.562Z,72.82
2018-03-25T00:15:38.777Z,72.85
2018-03-25T00:18:07.998Z,72.67
2018-03-25T00:20:38.008Z,72.85
2018-03-25T00:23:07.286Z,73.26
2018-03-25T00:25:36.607Z,73.44
2018-03-25T00:28:05.989Z,73.67
2018-03-25T00:30:35.187Z,73.85
2018-03-25T00:33:04.507Z,73.95
2018-03-25T00:35:33.697Z,73.84
2018-03-25T00:38:02.942Z,73.78
2018-03-25T00:40:32.190Z,74.14
2018-03-25T00:43:01.389Z,73.97
2018-03-25T00:45:30.603Z,73.97
2018-03-25T00:48:00.614Z,73.89
2018-03-25T00:50:29.867Z,74.04
2018-03-25T01:05:59.074Z,76.93
2018-03-25T01:08:28.270Z,76.92
2018-03-25T01:10:57.473Z,76.70
2018-03-25T01:13:26.683Z,76.80
2018-03-25T01:16:11.536Z,76.91
2018-03-25T01:18:40.804Z,76.85
2018-03-25T01:21:10.097Z,77.03
2018-03-25T01:23:40.116Z,76.50
2018-03-25T01:26:09.310Z,76.62
2018-03-25T01:28:38.721Z,76.61
2018-03-25T01:31:07.980Z,76.63
2018-03-25T01:33:37.954Z,76.67
2018-03-25T01:36:07.226Z,76.69
2018-03-25T01:38:36.558Z,76.70
2018-03-25T01:41:05.749Z,76.68
2018-03-25T01:43:35.089Z,76.74
2018-03-25T01:46:05.042Z,76.83
2018-03-25T01:48:34.256Z,76.82
2018-03-25T01:51:03.515Z,76.80
2018-03-25T01:53:32.854Z,76.97
2018-03-25T01:56:02.034Z,76.91
2018-03-25T01:58:31.250Z,76.64
2018-03-25T02:01:00.519Z,76.33
2018-03-25T02:03:29.740Z,76.37
2018-03-25T02:05:58.920Z,76.56
2018-03-25T02:08:28.122Z,76.71
2018-03-25T02:10:57.314Z,76.81
2018-03-25T02:13:26.597Z,76.64
2018-03-25T02:15:55.779Z,76.42
2018-03-25T02:18:25.059Z,76.59
2018-03-25T02:20:55.117Z,76.92
2018-03-25T02:23:24.306Z,77.06
2018-03-25T02:25:53.608Z,77.13
2018-03-25T02:28:22.920Z,77.05
2018-03-25T02:30:52.219Z,77.26
2018-03-25T02:33:21.434Z,77.54
2018-03-25T02:35:50.609Z,77.14
2018-03-25T02:38:19.849Z,77.02
2018-03-25T02:40:49.068Z,77.00
2018-03-25T02:43:18.408Z,77.25
2018-03-25T02:45:48.363Z,77.34
2018-03-25T02:48:17.559Z,77.16
2018-03-25T02:50:46.826Z,77.36
2018-03-25T02:53:16.020Z,77.56
2018-03-25T02:55:45.263Z,77.90
2018-03-25T02:58:14.464Z,78.24
2018-03-25T03:00:43.680Z,78.29
2018-03-25T03:03:12.943Z,78.34
2018-03-25T03:05:42.146Z,78.60
2018-03-25T03:08:11.335Z,78.58
2018-03-25T03:10:40.573Z,78.59
2018-03-25T03:13:10.759Z,78.61
2018-03-25T03:15:39.984Z,78.38
2018-03-25T03:18:10.042Z,78.83
2018-03-25T03:20:39.279Z,78.96
2018-03-25T03:23:08.587Z,79.18
2018-03-25T03:25:37.774Z,79.21
2018-03-25T03:28:07.009Z,79.34
2018-03-25T03:30:36.207Z,79.21
2018-03-25T03:33:05.434Z,79.03
2018-03-25T03:35:34.686Z,79.07
2018-03-25T03:38:04.662Z,79.29
2018-03-25T03:40:33.867Z,79.12
2018-03-25T03:43:03.216Z,79.28
2018-03-25T03:45:32.642Z,79.40
2018-03-25T03:48:01.867Z,79.46
2018-03-25T03:50:31.056Z,79.26
2018-03-25T03:53:00.311Z,79.21
2018-03-25T03:55:30.250Z,78.87
2018-03-25T03:57:59.490Z,78.79
2018-03-25T04:00:28.729Z,78.81
2018-03-25T04:02:57.944Z,79.05
2018-03-25T04:05:27.263Z,79.21
2018-03-25T04:07:56.472Z,79.24
2018-03-25T04:10:25.680Z,79.31
2018-03-25T04:12:54.875Z,79.63
2018-03-25T04:15:24.094Z,79.52
2018-03-25T04:17:54.098Z,79.67
2018-03-25T04:20:23.374Z,79.51
2018-03-25T04:22:53.367Z,79.54
2018-03-25T04:25:22.569Z,79.43
2018-03-25T04:27:51.754Z,79.21
2018-03-25T04:30:21.021Z,79.23
2018-03-25T04:32:50.979Z,79.62
2018-03-25T04:35:20.218Z,79.69
2018-03-25T04:37:50.263Z,79.93
2018-03-25T04:40:19.474Z,79.95
2018-03-25T04:42:48.690Z,79.95
2018-03-25T04:58:17.905Z,81.91
2018-03-25T05:00:47.135Z,82.50
2018-03-25T05:03:16.389Z,81.98
2018-03-25T05:05:45.597Z,81.73
2018-03-25T05:08:14.795Z,81.38
2018-03-25T05:10:44.000Z,81.43
2018-03-25T05:13:14.005Z,81.46
2018-03-25T05:15:43.210Z,81.21
2018-03-25T05:18:12.424Z,81.00
2018-03-25T05:20:41.722Z,80.73
2018-03-25T05:23:11.700Z,81.17
2018-03-25T05:25:41.659Z,81.07
2018-03-25T05:28:11.634Z,80.97
2018-03-25T05:30:40.834Z,80.96
2018-03-25T05:33:10.090Z,81.14
2018-03-25T05:35:39.281Z,81.30
2018-03-25T05:38:08.506Z,81.36
2018-03-25T05:40:37.703Z,81.73
2018-03-25T05:43:06.914Z,81.70
2018-03-25T05:45:36.133Z,81.43
2018-03-25T05:48:05.359Z,81.41
2018-03-25T05:50:34.641Z,81.56
2018-03-25T05:53:04.622Z,81.05
2018-03-25T05:55:33.870Z,81.35
2018-03-25T05:58:03.838Z,81.24
2018-03-25T06:00:33.224Z,80.74
2018-03-25T06:03:02.423Z,80.96
2018-03-25T06:05:31.652Z,81.07
2018-03-25T06:08:00.904Z,81.14
2018-03-25T06:10:30.110Z,80.88
2018-03-25T06:12:59.330Z,81.12
2018-03-25T06:15:28.596Z,81.14
2018-03-25T06:17:57.776Z,80.74
2018-03-25T06:20:27.054Z,80.97
2018-03-25T06:22:56.297Z,81.07
2018-03-25T06:25:25.523Z,80.95
2018-03-25T06:27:55.468Z,81.05
2018-03-25T06:30:25.483Z,81.04
2018-03-25T06:32:55.442Z,81.11
2018-03-25T06:35:24.675Z,80.76
2018-03-25T06:37:53.884Z,80.67
2018-03-25T06:40:23.104Z,80.57
2018-03-25T06:42:52.386Z,80.23
2018-03-25T06:45:21.606Z,80.07
2018-03-25T06:47:50.924Z,80.05
2018-03-25T06:50:20.140Z,79.77
2018-03-25T06:52:49.339Z,79.50
2018-03-25T06:55:19.215Z,79.20
2018-03-25T06:57:48.454Z,79.27
2018-03-25T07:00:17.630Z,78.96
2018-03-25T07:02:46.873Z,78.58
2018-03-25T07:05:16.090Z,78.33
2018-03-25T07:07:46.082Z,78.41
2018-03-25T07:10:15.320Z,77.84
2018-03-25T07:12:44.559Z,77.75
2018-03-25T07:15:13.759Z,77.83
2018-03-25T07:17:43.000Z,77.16
2018-03-25T07:20:12.968Z,77.13
2018-03-25T07:22:42.204Z,76.87
2018-03-25T07:25:12.182Z,77.08
2018-03-25T07:27:41.395Z,76.50
2018-03-25T07:30:10.603Z,76.22
2018-03-25T07:32:39.843Z,76.05
2018-03-25T07:35:09.051Z,75.91
2018-03-25T07:37:38.282Z,75.33
2018-03-25T07:40:07.509Z,75.01
2018-03-25T07:42:37.475Z,74.69
2018-03-25T07:45:06.692Z,74.30
2018-03-25T07:47:35.904Z,74.03
2018-03-25T07:50:05.246Z,73.64
2018-03-25T07:52:35.219Z,73.04
2018-03-25T07:55:04.430Z,72.55
2018-03-25T07:57:34.422Z,72.04
2018-03-25T08:00:03.684Z,71.98
2018-03-25T08:02:32.895Z,71.98
2018-03-25T08:05:02.129Z,71.61
2018-03-25T08:07:31.411Z,71.05
2018-03-25T08:10:00.663Z,70.74
2018-03-25T08:12:30.615Z,70.61
2018-03-25T08:14:59.875Z,70.22
2018-03-25T08:17:29.078Z,69.75
2018-03-25T08:19:58.295Z,69.63
2018-03-25T08:22:27.565Z,68.87
2018-03-25T08:24:57.552Z,68.45
2018-03-25T08:27:26.734Z,68.50
2018-03-25T08:29:55.951Z,67.25
2018-03-25T08:32:25.278Z,66.52
2018-03-25T08:34:54.527Z,66.16
2018-03-25T08:37:24.507Z,65.66
2018-03-25T08:39:53.723Z,64.87
2018-03-25T08:42:22.895Z,63.75
2018-03-25T08:44:52.090Z,61.68
2018-03-25T08:47:21.374Z,61.80
2018-03-25T08:49:50.601Z,62.01
2018-03-25T08:52:19.822Z,59.16
2018-03-25T08:54:49.113Z,58.33
2018-03-25T08:57:18.331Z,60.13
2018-03-25T08:59:48.343Z,60.26
2018-03-25T09:02:17.574Z,59.77
2018-03-25T09:04:47.562Z,57.33
2018-03-25T09:07:16.774Z,58.44
2018-03-25T09:09:45.992Z,58.71
2018-03-25T09:12:15.975Z,60.20
2018-03-25T09:14:45.997Z,60.25
2018-03-25T09:17:15.210Z,56.99
2018-03-25T09:19:45.219Z,57.66
2018-03-25T09:22:14.411Z,55.83
2018-03-25T09:24:43.657Z,55.77
2018-03-25T09:27:12.880Z,56.01
2018-03-25T09:29:42.111Z,57.94
2018-03-25T09:32:11.384Z,57.96
2018-03-25T09:34:40.642Z,57.79
2018-03-25T09:37:09.975Z,58.17
2018-03-25T09:39:40.097Z,58.46
2018-03-25T09:42:09.396Z,59.58
2018-03-25T09:44:38.585Z,57.74
2018-03-25T09:49:43.248Z,57.31
2018-03-25T09:52:12.417Z,57.34
2018-03-25T09:54:41.623Z,57.31
2018-03-25T09:57:11.679Z,55.17
2018-03-25T09:59:41.674Z,55.58
2018-03-25T10:02:12.581Z,55.44
2018-03-25T10:04:42.861Z,56.81
2018-03-25T10:07:12.059Z,55.38
2018-03-25T10:09:42.043Z,53.86
2018-03-25T10:12:11.259Z,54.91
2018-03-25T10:14:40.495Z,56.08
2018-03-25T10:17:09.727Z,53.40
2018-03-25T10:19:39.772Z,53.75
2018-03-25T10:22:09.015Z,54.71
2018-03-25T10:24:38.223Z,54.82
2018-03-25T10:27:07.424Z,54.66
2018-03-25T10:29:36.656Z,54.60
2018-03-25T10:32:05.892Z,54.80
2018-03-25T10:34:35.131Z,54.91
2018-03-25T10:37:05.959Z,53.65
2018-03-25T10:39:35.198Z,51.95
2018-03-25T10:42:05.180Z,53.24
2018-03-25T10:44:35.185Z,51.77
2018-03-25T10:47:04.391Z,52.94
2018-03-25T10:49:34.490Z,52.48
2018-03-25T10:52:03.647Z,53.16
2018-03-25T10:54:33.634Z,51.73
2018-03-25T10:57:02.862Z,51.50
2018-03-25T10:59:32.087Z,50.99
2018-03-25T11:02:01.291Z,47.39
2018-03-25T11:04:30.551Z,48.50
2018-03-25T11:07:00.536Z,49.91
2018-03-25T11:09:30.536Z,49.66
2018-03-25T11:11:59.780Z,49.89
2018-03-25T11:14:28.999Z,49.54
2018-03-25T11:16:58.248Z,49.51
2018-03-25T11:19:27.472Z,50.48
2018-03-25T11:21:56.699Z,49.66
2018-03-25T11:24:25.921Z,49.37
2018-03-25T11:26:55.137Z,49.86
2018-03-25T11:29:24.338Z,48.82
2018-03-25T11:31:53.599Z,47.61
2018-03-25T11:34:23.552Z,48.35
2018-03-25T11:36:52.793Z,47.10
2018-03-25T11:39:22.007Z,49.10
2018-03-25T11:41:51.288Z,48.73
2018-03-25T11:44:20.510Z,49.33
2018-03-25T11:46:49.852Z,48.22
2018-03-25T11:49:19.105Z,47.10
2018-03-25T11:51:48.294Z,46.98
2018-03-25T11:54:17.547Z,46.92
2018-03-25T11:56:46.761Z,46.57
2018-03-25T11:59:16.783Z,43.77
2018-03-25T12:01:46.111Z,42.71
2018-03-25T12:04:15.384Z,42.88
2018-03-25T12:06:44.630Z,43.95
2018-03-25T12:09:13.879Z,48.33
2018-03-25T12:11:43.938Z,45.26
2018-03-25T12:14:13.161Z,47.33
2018-03-25T12:16:42.346Z,46.26
2018-03-25T12:19:11.603Z,45.74
2018-03-25T12:21:40.847Z,46.52
2018-03-25T12:24:10.465Z,46.03
2018-03-25T12:26:39.681Z,46.08
2018-03-25T12:29:09.038Z,47.04
2018-03-25T12:31:38.273Z,46.80
2018-03-25T12:34:07.560Z,46.12
2018-03-25T12:36:36.779Z,44.86
2018-03-25T12:39:06.782Z,44.43
2018-03-25T12:41:36.750Z,44.99
2018-03-25T12:44:05.991Z,44.20
2018-03-25T12:46:35.191Z,45.12
2018-03-25T12:49:04.423Z,45.71
2018-03-25T12:51:33.648Z,47.18
2018-03-25T12:54:02.853Z,48.56
2018-03-25T12:56:32.059Z,49.81
2018-03-25T12:59:01.271Z,48.87
2018-03-25T13:01:30.529Z,49.73
2018-03-25T13:03:59.838Z,49.04
2018-03-25T13:06:29.062Z,48.62
2018-03-25T13:08:58.262Z,48.13
2018-03-25T13:11:27.487Z,46.94
2018-03-25T13:13:57.471Z,46.75
2018-03-25T13:16:26.792Z,45.24
2018-03-25T13:18:55.993Z,46.74
2018-03-25T13:21:25.239Z,47.07
2018-03-25T13:23:55.221Z,47.09
2018-03-25T13:26:25.267Z,44.58
2018-03-25T13:28:54.589Z,44.06
2018-03-25T13:31:23.821Z,45.36
2018-03-25T13:33:53.359Z,44.45
2018-03-25T13:36:22.583Z,45.78
2018-03-25T13:38:51.790Z,48.31
2018-03-25T13:41:21.077Z,48.78
2018-03-25T13:43:50.311Z,49.14
2018-03-25T13:46:19.538Z,48.27
2018-03-25T13:48:48.756Z,48.64
2018-03-25T13:51:17.970Z,48.65
2018-03-25T13:53:47.218Z,50.25
2018-03-25T13:56:17.201Z,49.03
2018-03-25T13:58:46.409Z,49.07
2018-03-25T14:01:15.805Z,48.79
2018-03-25T14:03:45.786Z,48.70
2018-03-25T14:06:15.002Z,48.57
2018-03-25T14:08:44.247Z,48.15
2018-03-25T14:11:14.216Z,48.01
2018-03-25T14:13:43.572Z,49.36
2018-03-25T14:16:13.551Z,48.17
2018-03-25T14:18:42.808Z,49.52
2018-03-25T14:21:12.096Z,48.76
2018-03-25T14:23:41.447Z,48.59
2018-03-25T14:26:10.939Z,48.83
2018-03-25T14:28:40.176Z,49.31
2018-03-25T14:31:10.161Z,50.06
2018-03-25T14:33:39.503Z,49.38
2018-03-25T14:36:09.508Z,50.15
2018-03-25T14:38:39.035Z,49.69
2018-03-25T14:41:08.268Z,48.78
2018-03-25T14:43:37.467Z,48.87
2018-03-25T14:46:06.707Z,48.27
2018-03-25T14:48:37.593Z,48.63
2018-03-25T14:51:06.893Z,48.21
2018-03-25T14:53:36.094Z,48.99
2018-03-25T14:56:05.403Z,49.48
2018-03-25T14:58:34.604Z,48.07
2018-03-25T15:01:04.585Z,48.39
2018-03-25T15:03:33.778Z,49.00
2018-03-25T15:06:03.280Z,49.04
2018-03-25T15:08:32.858Z,49.09
2018-03-25T15:11:02.066Z,50.52
2018-03-25T15:13:32.140Z,49.70
2018-03-25T15:16:01.454Z,50.18
2018-03-25T15:18:30.665Z,49.69
2018-03-25T15:21:00.046Z,49.78
2018-03-25T15:23:29.316Z,50.52
2018-03-25T15:25:58.973Z,50.73
2018-03-25T15:28:28.148Z,49.35
2018-03-25T15:30:57.382Z,49.54
2018-03-25T15:33:26.611Z,49.37
2018-03-25T15:35:55.911Z,49.81
2018-03-25T15:38:26.051Z,50.20
2018-03-25T15:40:55.296Z,50.25
2018-03-25T15:43:25.548Z,49.94
2018-03-25T15:45:54.782Z,49.62
2018-03-25T15:48:24.048Z,50.10
2018-03-25T15:50:53.247Z,51.82
2018-03-25T15:53:22.490Z,50.94
2018-03-25T15:55:52.455Z,50.99
2018-03-25T15:58:21.664Z,50.52
2018-03-25T16:00:50.890Z,50.25
2018-03-25T16:03:20.151Z,51.07
2018-03-25T16:05:49.367Z,51.10
2018-03-25T16:08:19.341Z,51.75
2018-03-25T16:10:49.357Z,51.43
2018-03-25T16:13:19.362Z,52.01
2018-03-25T16:15:49.378Z,51.98
2018-03-25T16:18:19.386Z,52.24
2018-03-25T16:20:49.399Z,51.70
2018-03-25T16:23:18.613Z,52.57
2018-03-25T16:25:47.864Z,52.21
2018-03-25T16:28:17.421Z,53.02
2018-03-25T16:30:46.668Z,53.81
2018-03-25T16:33:15.878Z,53.98
2018-03-25T16:35:45.135Z,53.15
2018-03-25T16:38:14.322Z,53.23
2018-03-25T16:40:43.553Z,53.67
2018-03-25T16:43:12.762Z,53.87
2018-03-25T16:45:42.010Z,53.62
2018-03-25T16:48:11.199Z,53.85
2018-03-25T16:50:41.211Z,54.29
2018-03-25T16:53:11.191Z,54.31
2018-03-25T16:55:40.452Z,54.34
2018-03-25T16:58:09.671Z,54.75
2018-03-25T17:00:38.875Z,54.59
2018-03-25T17:03:08.128Z,53.30
2018-03-25T17:05:38.173Z,53.93
2018-03-25T17:08:07.416Z,53.86
2018-03-25T17:10:36.640Z,54.12
2018-03-25T17:13:06.631Z,54.21
2018-03-25T17:15:36.033Z,53.91
2018-03-25T17:18:05.301Z,54.00
2018-03-25T17:20:34.535Z,54.25
2018-03-25T17:23:04.551Z,54.26
2018-03-25T17:25:34.009Z,54.54
2018-03-25T17:28:03.236Z,54.67
2018-03-25T17:30:32.487Z,55.16
2018-03-25T17:33:02.441Z,53.67
2018-03-25T17:35:31.775Z,53.91
2018-03-25T17:38:01.050Z,53.59
2018-03-25T17:40:30.316Z,54.01
2018-03-25T17:42:59.535Z,54.37
2018-03-25T17:45:28.759Z,54.21
2018-03-25T17:47:58.756Z,53.89
2018-03-25T17:50:27.976Z,54.12
2018-03-25T17:52:57.946Z,54.48
2018-03-25T17:55:27.174Z,54.64
2018-03-25T17:57:56.412Z,55.17
2018-03-25T18:00:25.634Z,55.44
2018-03-25T18:02:54.874Z,55.35
2018-03-25T18:05:24.309Z,56.30
2018-03-25T18:07:53.556Z,55.88
2018-03-25T18:10:22.774Z,55.98
2018-03-25T18:12:51.991Z,55.74
2018-03-25T18:15:21.983Z,55.73
2018-03-25T18:17:51.231Z,55.59
2018-03-25T18:20:20.469Z,55.97
2018-03-25T18:22:49.779Z,55.95
2018-03-25T18:25:18.983Z,56.36
2018-03-25T18:27:48.212Z,55.97
2018-03-25T18:30:17.488Z,55.93
2018-03-25T18:32:47.458Z,55.97
2018-03-25T18:35:16.706Z,55.66
2018-03-25T18:37:45.981Z,55.42
2018-03-25T18:40:15.189Z,55.66
2018-03-25T18:42:44.718Z,55.53
2018-03-25T18:45:13.917Z,55.07
2018-03-25T18:47:43.138Z,55.22
2018-03-25T18:50:12.935Z,55.40
2018-03-25T18:52:42.189Z,55.48
2018-03-25T18:55:11.447Z,55.61
2018-03-25T18:57:40.714Z,55.71
2018-03-25T19:00:10.694Z,55.52
2018-03-25T19:02:40.134Z,55.56
2018-03-25T19:05:10.139Z,55.80
2018-03-25T19:07:40.140Z,56.10
2018-03-25T19:10:09.360Z,56.31
2018-03-25T19:12:39.383Z,56.86
2018-03-25T19:15:08.623Z,57.51
2018-03-25T19:17:37.861Z,58.02
2018-03-25T19:20:07.055Z,58.16
2018-03-25T19:22:36.322Z,58.61
2018-03-25T19:25:05.604Z,59.02
2018-03-25T19:27:35.039Z,59.82
2018-03-25T19:30:05.189Z,59.65
2018-03-25T19:32:34.412Z,59.77
2018-03-25T19:35:03.737Z,59.26
2018-03-25T19:37:32.952Z,58.94
2018-03-25T19:40:02.263Z,58.46
2018-03-25T19:42:31.498Z,58.30
2018-03-25T19:45:01.471Z,58.62
2018-03-25T19:47:30.710Z,59.51
2018-03-25T19:49:59.952Z,58.46
2018-03-25T19:52:29.338Z,57.93
2018-03-25T19:54:58.678Z,57.66
2018-03-25T19:57:27.912Z,58.39
2018-03-25T19:59:57.162Z,58.88
2018-03-25T20:02:26.497Z,59.32
2018-03-25T20:04:55.696Z,59.98
2018-03-25T20:07:24.912Z,60.34
2018-03-25T20:09:54.146Z,60.33
2018-03-25T20:12:23.374Z,60.55
2018-03-25T20:14:52.615Z,60.98
2018-03-25T20:17:21.820Z,61.45
2018-03-25T20:19:51.077Z,61.77
2018-03-25T20:22:20.310Z,62.08
2018-03-25T20:24:49.721Z,62.61
2018-03-25T20:27:18.976Z,62.80
2018-03-25T20:42:53.269Z,64.39
2018-03-25T20:45:22.474Z,64.50
2018-03-25T20:47:51.773Z,64.93
2018-03-25T20:50:21.989Z,64.67
2018-03-25T20:52:51.200Z,64.43
2018-03-25T20:55:20.429Z,64.45
2018-03-25T20:57:49.647Z,64.30
2018-03-25T21:00:18.875Z,64.17
2018-03-25T21:02:48.846Z,64.14
2018-03-25T21:05:18.098Z,64.12
2018-03-25T21:07:47.358Z,64.28
2018-03-25T21:10:16.587Z,64.48
2018-03-25T21:12:46.570Z,64.64
2018-03-25T21:15:15.806Z,64.80
2018-03-25T21:17:45.794Z,64.58
2018-03-25T21:20:15.046Z,64.65
2018-03-25T21:22:44.267Z,67.87
2018-03-25T21:25:13.480Z,67.66
2018-03-25T21:27:42.709Z,66.78
2018-03-25T21:30:12.768Z,66.39
2018-03-25T21:32:42.008Z,66.54
2018-03-25T21:35:11.249Z,65.90
2018-03-25T21:37:40.553Z,65.98
2018-03-25T21:40:09.766Z,65.84
2018-03-25T21:42:38.996Z,65.73
2018-03-25T21:45:08.229Z,66.02
2018-03-25T21:47:37.471Z,65.98
2018-03-25T21:50:06.702Z,65.87
2018-03-25T21:52:36.721Z,65.91
2018-03-25T21:55:06.054Z,65.92
2018-03-25T21:57:36.142Z,66.07
2018-03-25T22:00:06.145Z,65.76
2018-03-25T22:02:35.368Z,66.10
2018-03-25T22:05:05.330Z,66.23
2018-03-25T22:07:34.569Z,66.03
2018-03-25T22:10:04.538Z,65.98
2018-03-25T22:12:33.774Z,65.87
2018-03-25T22:15:04.478Z,65.99
2018-03-25T22:17:33.677Z,66.21
2018-03-25T22:20:03.916Z,66.10
2018-03-25T22:22:33.102Z,66.20
2018-03-25T22:25:02.351Z,67.14
2018-03-25T22:27:32.594Z,68.34
2018-03-25T22:30:01.838Z,68.07
2018-03-25T22:32:31.044Z,68.33
2018-03-25T22:35:00.394Z,68.18
2018-03-25T22:37:29.617Z,67.96
2018-03-25T22:39:58.843Z,67.61
2018-03-25T22:42:28.813Z,67.12
2018-03-25T22:44:58.037Z,66.94
2018-03-25T22:47:27.237Z,66.96
2018-03-25T22:49:57.222Z,67.18
2018-03-25T22:52:26.438Z,67.14
2018-03-25T22:54:55.763Z,67.16
2018-03-25T22:57:25.762Z,67.04
2018-03-25T22:59:54.995Z,66.92
2018-03-25T23:02:24.210Z,66.56
2018-03-25T23:04:53.421Z,66.90
2018-03-25T23:07:22.622Z,67.07
2018-03-25T23:09:51.843Z,67.01
2018-03-25T23:12:21.054Z,66.89
2018-03-25T23:14:50.252Z,66.81
2018-03-25T23:17:20.231Z,67.13
2018-03-25T23:19:49.451Z,67.48
2018-03-25T23:22:18.643Z,67.36
2018-03-25T23:24:47.854Z,67.35
2018-03-25T23:27:17.105Z,67.44
2018-03-25T23:29:46.312Z,66.84
2018-03-25T23:32:15.531Z,66.32
2018-03-25T23:34:44.815Z,66.75
2018-03-25T23:37:14.007Z,67.06
2018-03-25T23:39:43.208Z,67.74
2018-03-25T23:42:12.427Z,68.01
2018-03-25T23:44:41.627Z,68.51
2018-03-25T23:47:10.851Z,67.34
2018-03-25T23:49:40.824Z,67.09
2018-03-25T23:52:10.046Z,67.33
2018-03-25T23:54:39.264Z,67.09
2018-03-25T23:57:09.238Z,67.03
2018-03-25T23:59:38.684Z,67.22
